Time;durP1;ratioP1;P1;durP2;ratioP2;P2;SDS_P1;SDS_P2;PMS_P1;PMS_P2;Temp;Humidity;BMP_temperature;BMP_pressure;BME280_temperature;BME280_humidity;BME280_pressure;Samples;Min_cycle;Max_cycle;Signal;HPM_P1;HPM_P2
2023/06/01 00:01:04;;;;;;;0.10;0.10;;;16.80;99.90;;;;;;5053827;28;20409;-88
2023/06/01 00:03:30;;;;;;;0.17;0.17;;;16.60;99.90;;;;;;5053723;28;20551;-88
2023/06/01 00:05:56;;;;;;;0.15;0.15;;;16.60;99.90;;;;;;5035701;28;20028;-87
2023/06/01 00:08:25;;;;;;;0.10;0.10;;;16.80;99.90;;;;;;5053761;28;20025;-88
2023/06/01 00:10:51;;;;;;;0.20;0.20;;;16.80;99.90;;;;;;5035918;28;20025;-88
2023/06/01 00:13:16;;;;;;;0.10;0.10;;;16.70;99.90;;;;;;5035909;28;20389;-87
2023/06/01 00:15:43;;;;;;;0.17;0.17;;;16.70;99.90;;;;;;5036019;28;20021;-88
2023/06/01 00:18:12;;;;;;;0.43;0.40;;;16.70;99.90;;;;;;5052935;28;20044;-88
2023/06/01 00:20:39;;;;;;;0.00;0.00;;;16.80;99.90;;;;;;5053260;28;20021;-88
2023/06/01 00:23:05;;;;;;;1.10;0.63;;;16.80;99.90;;;;;;5053430;28;20400;-88
2023/06/01 00:25:31;;;;;;;0.13;0.13;;;16.80;99.90;;;;;;5053851;28;20351;-88
2023/06/01 00:27:56;;;;;;;0.15;0.15;;;16.80;99.90;;;;;;5053383;28;20040;-88
2023/06/01 00:30:22;;;;;;;0.15;0.15;;;16.80;99.90;;;;;;5035608;28;20029;-88
2023/06/01 00:32:47;;;;;;;0.13;0.13;;;16.80;99.90;;;;;;5052998;28;20025;-88
2023/06/01 00:35:13;;;;;;;0.22;0.22;;;16.90;99.90;;;;;;5053086;28;20017;-88
2023/06/01 00:37:39;;;;;;;0.20;0.20;;;16.70;99.90;;;;;;5053530;28;20087;-88
2023/06/01 00:40:06;;;;;;;0.32;0.30;;;16.80;99.90;;;;;;5034935;28;20024;-88
2023/06/01 00:42:31;;;;;;;0.10;0.10;;;16.80;99.90;;;;;;5035320;28;20025;-88
2023/06/01 00:44:58;;;;;;;0.20;0.20;;;16.80;99.90;;;;;;5035602;28;20512;-88
2023/06/01 00:47:24;;;;;;;0.25;0.25;;;16.80;99.90;;;;;;5052407;28;20104;-88
2023/06/01 00:49:50;;;;;;;0.17;0.17;;;16.70;99.90;;;;;;5028332;28;20117;-88
2023/06/01 00:52:17;;;;;;;0.40;0.30;;;16.50;99.90;;;;;;5033422;28;20030;-87
2023/06/01 00:54:42;;;;;;;0.00;0.00;;;16.40;99.90;;;;;;5033109;28;20033;-88
2023/06/01 00:57:08;;;;;;;0.20;0.13;;;16.40;99.90;;;;;;5036133;28;20144;-88
2023/06/01 00:59:34;;;;;;;0.10;0.10;;;16.40;99.90;;;;;;5019360;28;20050;-88
2023/06/01 01:02:01;;;;;;;0.15;0.15;;;16.50;99.90;;;;;;5018928;28;20026;-88
2023/06/01 01:04:29;;;;;;;0.20;0.20;;;16.60;99.90;;;;;;5037040;28;20029;-88
2023/06/01 01:07:20;;;;;;;0.28;0.20;;;16.50;99.90;;;;;;5037158;28;20057;-88
2023/06/01 01:10:29;;;;;;;1.25;0.20;;;16.40;99.90;;;;;;5037111;28;20029;-88
2023/06/01 01:13:13;;;;;;;0.10;0.10;;;16.40;99.90;;;;;;4937520;29;20032;-88
2023/06/01 01:16:00;;;;;;;2.10;0.40;;;16.40;99.90;;;;;;4937680;29;20239;-88
2023/06/01 01:18:38;;;;;;;0.10;0.10;;;16.50;99.90;;;;;;4937382;29;20130;-88
2023/06/01 01:21:21;;;;;;;0.30;0.10;;;16.40;99.90;;;;;;4921344;29;20046;-88
2023/06/01 01:23:59;;;;;;;0.00;0.00;;;16.20;99.90;;;;;;4937313;29;20035;-88
2023/06/01 01:26:41;;;;;;;0.32;0.32;;;16.30;99.90;;;;;;4937353;29;20034;-88
2023/06/01 01:29:10;;;;;;;0.10;0.10;;;16.30;99.90;;;;;;4937436;29;20031;-88
2023/06/01 01:31:39;;;;;;;0.10;0.10;;;16.30;99.90;;;;;;4936774;29;20536;-88
2023/06/01 01:34:07;;;;;;;0.05;0.05;;;16.20;99.90;;;;;;4937285;29;20032;-89
2023/06/01 01:36:33;;;;;;;0.10;0.10;;;16.00;99.90;;;;;;4921269;29;20071;-88
2023/06/01 01:38:59;;;;;;;0.88;0.47;;;15.80;99.90;;;;;;4921439;29;20036;-88
2023/06/01 01:41:25;;;;;;;0.03;0.03;;;15.80;99.90;;;;;;4941209;29;20082;-88
2023/06/01 01:43:52;;;;;;;0.20;0.20;;;15.70;99.90;;;;;;5017413;28;20493;-88
2023/06/01 01:46:28;;;;;;;0.20;0.20;;;15.60;99.90;;;;;;5056361;28;20025;-88
2023/06/01 01:49:17;;;;;;;0.30;0.30;;;15.70;99.90;;;;;;5056365;28;20029;-89
2023/06/01 01:52:13;;;;;;;0.10;0.10;;;15.70;99.90;;;;;;5036342;28;20029;-88
2023/06/01 01:54:43;;;;;;;0.30;0.30;;;15.70;99.90;;;;;;5036058;28;20025;-88
2023/06/01 01:57:10;;;;;;;0.25;0.25;;;15.80;99.90;;;;;;5035858;28;20029;-88
2023/06/01 01:59:37;;;;;;;0.08;0.08;;;15.90;99.90;;;;;;5017950;28;20053;-88
2023/06/01 02:02:02;;;;;;;0.10;0.10;;;15.80;99.90;;;;;;5018136;28;20506;-88
2023/06/01 02:04:28;;;;;;;0.68;0.30;;;16.00;99.90;;;;;;5036497;28;20026;-87
2023/06/01 02:06:54;;;;;;;1.80;0.30;;;15.70;99.90;;;;;;5017718;28;20080;-88
2023/06/01 02:09:20;;;;;;;0.10;0.10;;;15.60;99.90;;;;;;5017635;28;20026;-87
2023/06/01 02:11:45;;;;;;;0.10;0.10;;;15.60;99.90;;;;;;5036432;28;20400;-88
2023/06/01 02:14:11;;;;;;;0.15;0.15;;;15.70;99.90;;;;;;5035347;28;20032;-88
2023/06/01 02:16:37;;;;;;;0.30;0.20;;;15.80;99.90;;;;;;5017934;28;20029;-87
2023/06/01 02:19:03;;;;;;;1.35;0.40;;;15.90;99.90;;;;;;5017831;28;20090;-88
2023/06/01 02:21:29;;;;;;;0.10;0.10;;;15.80;99.90;;;;;;5035612;28;20024;-88
2023/06/01 02:23:55;;;;;;;0.00;0.00;;;15.90;99.90;;;;;;5034285;28;20084;-87
2023/06/01 02:26:21;;;;;;;0.20;0.20;;;15.80;99.90;;;;;;5035851;28;20036;-88
2023/06/01 02:28:47;;;;;;;0.40;0.25;;;15.80;99.90;;;;;;5017172;28;20022;-88
2023/06/01 02:31:14;;;;;;;0.10;0.10;;;15.70;99.90;;;;;;5035862;28;20032;-88
2023/06/01 02:33:40;;;;;;;0.10;0.10;;;15.70;99.90;;;;;;5035458;28;20477;-88
2023/06/01 02:36:06;;;;;;;0.00;0.00;;;15.80;99.90;;;;;;5035456;28;20312;-88
2023/06/01 02:38:32;;;;;;;0.20;0.20;;;15.80;99.90;;;;;;5035319;28;20428;-88
2023/06/01 02:40:57;;;;;;;0.20;0.10;;;15.80;99.90;;;;;;5035802;28;20060;-88
2023/06/01 02:43:23;;;;;;;0.00;0.00;;;15.80;99.90;;;;;;5055309;28;20079;-88
2023/06/01 02:45:48;;;;;;;0.05;0.05;;;15.70;99.90;;;;;;5055045;28;20013;-88
2023/06/01 02:48:14;;;;;;;0.17;0.17;;;15.80;99.90;;;;;;5037391;28;20033;-88
2023/06/01 02:50:40;;;;;;;0.10;0.10;;;15.80;99.90;;;;;;5041415;28;20029;-88
2023/06/01 02:53:06;;;;;;;0.10;0.10;;;15.80;99.90;;;;;;5017767;28;20030;-88
2023/06/01 02:55:31;;;;;;;0.10;0.10;;;15.70;99.90;;;;;;5017397;28;20124;-88
2023/06/01 02:57:57;;;;;;;0.03;0.03;;;15.70;99.90;;;;;;5034665;28;20033;-88
2023/06/01 03:00:22;;;;;;;0.20;0.20;;;15.80;99.90;;;;;;5017239;28;20045;-88
2023/06/01 03:02:48;;;;;;;0.30;0.30;;;15.80;99.90;;;;;;5035023;28;20025;-88
2023/06/01 03:05:14;;;;;;;0.10;0.10;;;15.70;99.90;;;;;;5035080;28;20030;-88
2023/06/01 03:07:46;;;;;;;0.08;0.08;;;15.70;99.90;;;;;;5017186;28;20026;-87
2023/06/01 03:10:12;;;;;;;0.00;0.00;;;15.70;99.90;;;;;;5017114;28;20439;-88
2023/06/01 03:12:39;;;;;;;0.15;0.15;;;15.60;99.90;;;;;;5016564;28;20605;-88
2023/06/01 03:15:05;;;;;;;0.10;0.10;;;15.70;99.90;;;;;;5034744;28;20056;-88
2023/06/01 03:17:33;;;;;;;0.10;0.10;;;15.70;99.90;;;;;;5034420;28;20040;-88
2023/06/01 03:19:59;;;;;;;0.20;0.20;;;15.60;99.90;;;;;;5034337;28;20033;-88
2023/06/01 03:22:24;;;;;;;0.00;0.00;;;15.60;99.90;;;;;;5034950;28;20379;-88
2023/06/01 03:24:50;;;;;;;0.00;0.00;;;15.70;99.90;;;;;;5034527;28;20048;-88
2023/06/01 03:27:16;;;;;;;0.10;0.10;;;15.70;99.90;;;;;;5034178;28;20097;-88
2023/06/01 03:29:42;;;;;;;0.10;0.10;;;15.70;99.90;;;;;;5016664;28;20033;-88
2023/06/01 03:32:08;;;;;;;0.75;0.20;;;15.70;99.90;;;;;;5034526;28;20367;-88
2023/06/01 03:34:36;;;;;;;0.05;0.05;;;15.70;99.90;;;;;;5016625;28;20033;-88
2023/06/01 03:37:03;;;;;;;0.00;0.00;;;15.50;99.90;;;;;;5034235;28;20498;-89
2023/06/01 03:39:33;;;;;;;0.10;0.10;;;15.50;99.90;;;;;;5016594;28;20045;-89
2023/06/01 03:41:59;;;;;;;0.10;0.10;;;15.50;99.90;;;;;;5043100;28;20029;-88
2023/06/01 03:44:25;;;;;;;0.00;0.00;;;15.30;99.90;;;;;;5053717;28;20090;-88
2023/06/01 03:46:50;;;;;;;0.60;0.40;;;15.30;99.90;;;;;;5036255;28;20025;-88
2023/06/01 03:49:16;;;;;;;0.00;0.00;;;15.40;99.90;;;;;;5051756;28;20418;-88
2023/06/01 03:51:42;;;;;;;0.20;0.20;;;15.40;99.90;;;;;;5034324;28;20041;-88
2023/06/01 03:54:07;;;;;;;0.35;0.13;;;15.50;99.90;;;;;;5016438;28;20029;-88
2023/06/01 03:56:33;;;;;;;0.30;0.30;;;15.50;99.90;;;;;;5032642;28;20085;-88
2023/06/01 03:59:00;;;;;;;0.30;0.30;;;15.50;99.90;;;;;;5033567;28;20057;-88
2023/06/01 04:01:29;;;;;;;0.10;0.10;;;15.60;99.90;;;;;;5033260;28;20197;-90
2023/06/01 04:03:56;;;;;;;0.45;0.43;;;15.70;99.90;;;;;;5015705;28;20071;-87
2023/06/01 04:06:21;;;;;;;1.45;0.95;;;15.70;99.90;;;;;;5033562;28;20545;-88
2023/06/01 04:08:49;;;;;;;0.40;0.40;;;15.60;99.90;;;;;;5033092;28;20160;-88
2023/06/01 04:11:16;;;;;;;0.10;0.10;;;15.30;99.90;;;;;;5033237;28;20370;-88
2023/06/01 04:13:43;;;;;;;0.00;0.00;;;15.30;99.90;;;;;;5015650;28;20032;-87
2023/06/01 04:16:09;;;;;;;0.20;0.20;;;15.30;99.90;;;;;;5033731;28;20025;-86
2023/06/01 04:18:35;;;;;;;0.22;0.22;;;15.20;99.90;;;;;;5014868;28;20448;-87
2023/06/01 04:21:00;;;;;;;0.20;0.20;;;15.10;99.90;;;;;;5033145;28;20029;-87
2023/06/01 04:23:26;;;;;;;0.13;0.13;;;15.20;99.90;;;;;;5032732;28;20155;-87
2023/06/01 04:25:52;;;;;;;0.55;0.55;;;15.30;99.90;;;;;;5032494;28;20036;-87
2023/06/01 04:28:18;;;;;;;0.30;0.30;;;15.60;99.90;;;;;;5015288;28;20116;-87
2023/06/01 04:30:51;;;;;;;0.10;0.10;;;15.70;99.90;;;;;;5015248;28;20022;-87
2023/06/01 04:33:17;;;;;;;0.43;0.38;;;15.70;99.90;;;;;;5032746;28;20035;-87
2023/06/01 04:35:43;;;;;;;0.10;0.10;;;15.60;99.90;;;;;;5032943;28;20028;-86
2023/06/01 04:38:09;;;;;;;0.10;0.10;;;15.70;99.90;;;;;;5052320;28;20032;-87
2023/06/01 04:40:35;;;;;;;0.20;0.20;;;15.80;99.90;;;;;;5052261;28;20513;-87
2023/06/01 04:43:02;;;;;;;0.82;0.80;;;15.90;99.90;;;;;;5052833;28;20505;-87
2023/06/01 04:45:30;;;;;;;0.40;0.40;;;15.80;99.90;;;;;;5034838;28;20017;-87
2023/06/01 04:47:59;;;;;;;0.22;0.22;;;15.90;99.90;;;;;;5053380;28;20028;-86
2023/06/01 04:50:28;;;;;;;0.20;0.20;;;16.00;99.90;;;;;;5040821;28;20029;-86
2023/06/01 04:52:55;;;;;;;0.00;0.00;;;15.90;99.90;;;;;;5032463;28;20033;-84
2023/06/01 04:55:21;;;;;;;0.20;0.20;;;16.10;99.90;;;;;;5032187;28;20204;-83
2023/06/01 04:57:46;;;;;;;0.10;0.10;;;16.20;99.90;;;;;;5032280;28;20042;-84
2023/06/01 05:00:17;;;;;;;0.00;0.00;;;16.30;99.90;;;;;;5032303;28;20593;-84
2023/06/01 05:02:44;;;;;;;0.10;0.10;;;16.20;99.90;;;;;;5032250;28;20021;-84
2023/06/01 05:05:10;;;;;;;0.00;0.00;;;16.10;99.90;;;;;;5032262;28;20029;-84
2023/06/01 05:07:37;;;;;;;0.30;0.30;;;16.20;99.90;;;;;;5032018;28;20030;-84
2023/06/01 05:10:05;;;;;;;0.00;0.00;;;16.20;99.90;;;;;;5031830;28;20489;-84
2023/06/01 05:12:32;;;;;;;0.52;0.40;;;16.10;99.90;;;;;;5032179;28;20025;-84
2023/06/01 05:14:57;;;;;;;0.00;0.00;;;16.20;99.90;;;;;;5032301;28;20501;-83
2023/06/01 05:17:23;;;;;;;0.00;0.00;;;16.20;99.90;;;;;;5032160;28;20030;-83
2023/06/01 05:19:49;;;;;;;1.15;0.60;;;16.10;99.90;;;;;;5031868;28;20116;-84
2023/06/01 05:22:15;;;;;;;0.00;0.00;;;16.20;99.90;;;;;;5031731;28;20109;-84
2023/06/01 05:24:40;;;;;;;0.10;0.10;;;16.30;99.90;;;;;;5032339;28;20033;-84
2023/06/01 05:27:06;;;;;;;0.20;0.20;;;16.40;99.90;;;;;;5031841;28;20026;-84
2023/06/01 05:29:32;;;;;;;0.10;0.10;;;16.40;99.90;;;;;;5032204;28;20025;-85
2023/06/01 05:31:57;;;;;;;0.10;0.10;;;16.40;99.90;;;;;;5032131;28;20412;-84
2023/06/01 05:34:23;;;;;;;0.30;0.30;;;16.40;99.90;;;;;;5032116;28;20025;-84
2023/06/01 05:36:48;;;;;;;0.10;0.10;;;16.50;99.90;;;;;;5031276;28;20389;-84
2023/06/01 05:39:15;;;;;;;0.00;0.00;;;16.60;99.90;;;;;;5031716;28;20040;-83
2023/06/01 05:41:41;;;;;;;0.28;0.28;;;16.50;99.90;;;;;;5038239;28;20550;-84
2023/06/01 05:44:06;;;;;;;0.00;0.00;;;16.50;99.90;;;;;;5054506;28;20032;-84
2023/06/01 05:46:32;;;;;;;0.00;0.00;;;16.60;99.90;;;;;;5055475;28;20017;-84
2023/06/01 05:48:57;;;;;;;0.10;0.10;;;16.60;99.90;;;;;;5055462;28;20098;-84
2023/06/01 05:51:23;;;;;;;0.10;0.10;;;16.70;99.90;;;;;;5017834;28;20490;-84
2023/06/01 05:53:49;;;;;;;0.47;0.30;;;16.80;99.90;;;;;;5035268;28;20028;-84
2023/06/01 05:56:16;;;;;;;0.00;0.00;;;16.90;99.90;;;;;;5035305;28;20401;-84
2023/06/01 05:58:42;;;;;;;0.00;0.00;;;16.90;99.90;;;;;;5034754;28;20045;-83
2023/06/01 06:01:09;;;;;;;0.00;0.00;;;16.80;99.90;;;;;;5035392;28;20056;-84
2023/06/01 06:03:34;;;;;;;0.10;0.10;;;17.10;99.90;;;;;;5035237;28;20037;-84
2023/06/01 06:06:00;;;;;;;0.00;0.00;;;17.00;99.90;;;;;;5035077;28;20498;-84
2023/06/01 06:08:27;;;;;;;0.10;0.10;;;17.10;99.90;;;;;;5034641;28;20397;-84
2023/06/01 06:10:52;;;;;;;0.10;0.10;;;17.10;99.90;;;;;;5034897;28;20063;-84
2023/06/01 06:13:18;;;;;;;0.20;0.20;;;17.20;99.90;;;;;;5035269;28;20440;-84
2023/06/01 06:15:44;;;;;;;0.00;0.00;;;17.10;99.90;;;;;;5035028;28;20091;-84
2023/06/01 06:18:10;;;;;;;0.00;0.00;;;17.30;99.90;;;;;;5034898;28;20068;-84
2023/06/01 06:20:36;;;;;;;0.00;0.00;;;17.40;99.90;;;;;;5034487;28;20096;-84
2023/06/01 06:23:01;;;;;;;0.10;0.10;;;17.40;99.90;;;;;;5034980;28;20505;-84
2023/06/01 06:25:27;;;;;;;0.00;0.00;;;17.40;99.90;;;;;;5034847;28;20557;-84
2023/06/01 06:27:53;;;;;;;0.10;0.10;;;17.50;99.90;;;;;;5034807;28;20029;-84
2023/06/01 06:30:19;;;;;;;0.10;0.10;;;17.50;99.90;;;;;;5034761;28;20498;-83
2023/06/01 06:32:44;;;;;;;0.00;0.00;;;17.70;99.90;;;;;;5034850;28;20026;-84
2023/06/01 06:35:13;;;;;;;0.08;0.08;;;17.70;99.90;;;;;;5035232;28;20561;-84
2023/06/01 06:37:41;;;;;;;0.17;0.17;;;17.80;99.90;;;;;;5034288;28;20059;-84
2023/06/01 06:40:08;;;;;;;0.08;0.08;;;17.80;99.90;;;;;;5034565;28;20022;-84
2023/06/01 06:42:33;;;;;;;0.40;0.40;;;17.80;99.90;;;;;;5048219;28;20020;-84
2023/06/01 06:44:59;;;;;;;0.28;0.28;;;17.80;99.90;;;;;;5054707;28;20103;-83
2023/06/01 06:47:25;;;;;;;0.52;0.32;;;17.90;99.90;;;;;;5054448;28;20039;-84
2023/06/01 06:49:51;;;;;;;0.20;0.20;;;17.80;99.90;;;;;;5047105;28;20112;-84
2023/06/01 06:52:17;;;;;;;0.03;0.03;;;17.90;99.90;;;;;;5034681;28;20033;-84
2023/06/01 06:54:43;;;;;;;0.20;0.20;;;17.90;99.90;;;;;;5033973;28;20029;-84
2023/06/01 06:57:10;;;;;;;0.20;0.20;;;18.00;99.90;;;;;;5034123;28;20048;-84
2023/06/01 06:59:36;;;;;;;0.35;0.05;;;18.20;99.90;;;;;;5033906;28;20041;-83
2023/06/01 07:02:03;;;;;;;0.13;0.13;;;18.30;99.90;;;;;;5034003;28;20025;-84
2023/06/01 07:04:29;;;;;;;0.40;0.40;;;18.30;99.90;;;;;;5033597;28;20037;-84
2023/06/01 07:06:55;;;;;;;0.15;0.15;;;18.50;99.90;;;;;;5033956;28;20421;-84
2023/06/01 07:09:21;;;;;;;0.00;0.00;;;18.50;99.90;;;;;;5034231;28;20025;-84
2023/06/01 07:11:47;;;;;;;0.08;0.08;;;18.60;99.90;;;;;;5033875;28;20029;-83
2023/06/01 07:14:13;;;;;;;0.28;0.28;;;18.70;99.90;;;;;;5033839;28;20078;-84
2023/06/01 07:16:39;;;;;;;0.00;0.00;;;18.70;99.90;;;;;;5033963;28;20508;-83
2023/06/01 07:19:05;;;;;;;0.00;0.00;;;18.90;99.90;;;;;;5033098;28;20037;-84
2023/06/01 07:21:30;;;;;;;0.20;0.20;;;19.00;99.90;;;;;;5033601;28;20025;-84
2023/06/01 07:23:56;;;;;;;0.22;0.22;;;19.00;99.90;;;;;;5033625;28;20025;-83
2023/06/01 07:26:25;;;;;;;0.20;0.20;;;19.00;99.90;;;;;;5033792;28;20032;-84
2023/06/01 07:28:53;;;;;;;0.40;0.28;;;19.00;99.90;;;;;;5033660;28;20033;-83
2023/06/01 07:31:19;;;;;;;0.45;0.45;;;19.00;99.90;;;;;;5033489;28;20099;-83
2023/06/01 07:33:45;;;;;;;0.10;0.10;;;18.90;99.90;;;;;;5032842;28;20029;-83
2023/06/01 07:36:11;;;;;;;0.00;0.00;;;19.00;99.90;;;;;;5033123;28;20025;-84
2023/06/01 07:38:37;;;;;;;0.60;0.50;;;19.00;99.90;;;;;;5033367;28;20037;-83
2023/06/01 07:41:03;;;;;;;0.20;0.20;;;19.00;99.90;;;;;;5034554;28;20493;-84
2023/06/01 07:43:28;;;;;;;0.15;0.15;;;19.00;99.90;;;;;;5053048;28;20029;-83
2023/06/01 07:45:55;;;;;;;0.20;0.20;;;19.20;99.90;;;;;;5052955;28;20029;-83
2023/06/01 07:48:21;;;;;;;0.10;0.10;;;19.20;99.90;;;;;;5052962;28;20032;-83
2023/06/01 07:50:46;;;;;;;0.10;0.10;;;19.10;99.90;;;;;;5038890;28;20029;-83
2023/06/01 07:53:13;;;;;;;0.28;0.28;;;19.20;99.90;;;;;;5032966;28;20433;-83
2023/06/01 07:55:39;;;;;;;0.63;0.63;;;19.30;99.90;;;;;;5032899;28;20406;-83
2023/06/01 07:58:05;;;;;;;0.95;0.65;;;19.30;99.90;;;;;;5032703;28;20033;-83
2023/06/01 08:00:31;;;;;;;0.30;0.30;;;19.50;99.90;;;;;;5014889;28;20410;-83
2023/06/01 08:02:58;;;;;;;0.22;0.22;;;19.60;99.90;;;;;;5032621;28;20032;-83
2023/06/01 08:05:24;;;;;;;0.22;0.22;;;19.70;99.90;;;;;;5032103;28;20486;-83
2023/06/01 08:07:50;;;;;;;0.55;0.55;;;19.80;99.90;;;;;;5032893;28;20022;-83
2023/06/01 08:10:16;;;;;;;0.10;0.10;;;19.80;99.90;;;;;;5032672;28;20037;-83
2023/06/01 08:12:44;;;;;;;0.15;0.15;;;19.80;99.90;;;;;;5032866;28;20113;-83
2023/06/01 08:15:11;;;;;;;0.35;0.20;;;19.80;99.90;;;;;;5032631;28;20100;-83
2023/06/01 08:17:38;;;;;;;0.25;0.25;;;20.00;99.90;;;;;;5032513;28;20120;-84
2023/06/01 08:20:12;;;;;;;0.30;0.30;;;20.00;99.90;;;;;;5032352;28;20565;-83
2023/06/01 08:22:40;;;;;;;0.30;0.30;;;20.10;99.90;;;;;;5032386;28;20109;-83
2023/06/01 08:25:06;;;;;;;0.38;0.38;;;20.20;99.90;;;;;;5032470;28;20070;-84
2023/06/01 08:27:31;;;;;;;0.73;0.57;;;20.30;99.90;;;;;;5032380;28;20029;-83
2023/06/01 08:29:58;;;;;;;0.52;0.52;;;20.30;99.90;;;;;;5032304;28;20497;-83
2023/06/01 08:32:24;;;;;;;1.02;0.65;;;20.50;99.90;;;;;;5031959;28;20021;-83
2023/06/01 08:34:50;;;;;;;0.40;0.40;;;20.70;99.90;;;;;;5032295;28;20448;-84
2023/06/01 08:37:16;;;;;;;0.30;0.30;;;20.60;99.90;;;;;;5032520;28;20026;-83
2023/06/01 08:39:42;;;;;;;0.30;0.30;;;20.70;99.90;;;;;;5014634;28;20116;-84
2023/06/01 08:42:08;;;;;;;0.20;0.20;;;20.70;99.90;;;;;;5042403;28;20030;-83
2023/06/01 08:44:39;;;;;;;0.52;0.43;;;20.80;99.90;;;;;;5034244;28;20254;-83
2023/06/01 08:47:06;;;;;;;0.50;0.50;;;20.90;99.90;;;;;;5051697;28;20419;-83
2023/06/01 08:49:33;;;;;;;0.40;0.40;;;20.90;99.90;;;;;;5047482;28;20025;-83
2023/06/01 08:52:08;;;;;;;0.20;0.20;;;21.10;99.90;;;;;;5032137;28;20025;-84
2023/06/01 08:54:35;;;;;;;0.22;0.22;;;21.10;99.90;;;;;;5032255;28;20025;-83
2023/06/01 08:57:07;;;;;;;0.68;0.50;;;21.10;99.90;;;;;;5032486;28;20026;-83
2023/06/01 08:59:34;;;;;;;0.40;0.38;;;21.10;99.90;;;;;;5031580;28;20509;-83
2023/06/01 09:02:00;;;;;;;0.77;0.68;;;21.20;99.90;;;;;;5031774;28;20482;-83
2023/06/01 09:04:26;;;;;;;1.30;0.40;;;21.30;99.90;;;;;;5032132;28;20440;-83
2023/06/01 09:06:52;;;;;;;0.20;0.20;;;21.40;99.90;;;;;;5032120;28;20485;-84
2023/06/01 09:09:18;;;;;;;0.13;0.13;;;21.70;99.90;;;;;;5031865;28;20022;-83
2023/06/01 09:11:44;;;;;;;0.15;0.15;;;21.80;99.90;;;;;;5032075;28;20031;-84
2023/06/01 09:14:21;;;;;;;0.32;0.25;;;21.80;99.90;;;;;;5032137;28;20032;-84
2023/06/01 09:16:47;;;;;;;0.20;0.20;;;21.70;99.90;;;;;;5033126;28;20404;-83
2023/06/01 09:19:13;;;;;;;0.30;0.30;;;21.80;99.90;;;;;;5035716;28;20482;-83
2023/06/01 09:21:39;;;;;;;0.00;0.00;;;21.80;99.90;;;;;;5036200;28;20022;-83
2023/06/01 09:24:19;;;;;;;0.82;0.55;;;22.00;99.90;;;;;;5035568;28;20026;-84
2023/06/01 09:26:48;;;;;;;0.10;0.10;;;22.00;99.90;;;;;;5036031;28;20502;-84
2023/06/01 09:29:14;;;;;;;0.22;0.22;;;22.00;99.90;;;;;;5034912;28;20405;-83
2023/06/01 09:31:47;;;;;;;0.40;0.40;;;22.10;99.90;;;;;;5036063;28;20079;-83
2023/06/01 09:34:16;;;;;;;0.20;0.20;;;22.20;99.90;;;;;;5035613;28;20033;-83
2023/06/01 09:36:42;;;;;;;0.00;0.00;;;22.30;99.90;;;;;;5035432;28;20045;-83
2023/06/01 09:39:10;;;;;;;0.10;0.10;;;22.50;99.90;;;;;;5035659;28;20276;-84
2023/06/01 09:41:58;;;;;;;0.90;0.50;;;22.30;99.90;;;;;;5041448;28;20024;-83
2023/06/01 09:44:27;;;;;;;0.25;0.25;;;22.40;99.90;;;;;;5055003;28;20029;-83
2023/06/01 09:47:04;;;;;;;0.22;0.20;;;22.40;99.90;;;;;;5055148;28;20083;-84
2023/06/01 09:49:32;;;;;;;0.32;0.10;;;22.50;99.90;;;;;;5051008;28;20071;-83
2023/06/01 09:52:04;;;;;;;0.08;0.08;;;22.50;99.90;;;;;;5035273;28;20021;-83
2023/06/01 09:54:41;;;;;;;0.17;0.10;;;22.50;99.90;;;;;;5035277;28;20068;-83
2023/06/01 09:57:07;;;;;;;0.10;0.10;;;22.40;99.90;;;;;;5017387;28;20021;-83
2023/06/01 09:59:41;;;;;;;0.47;0.38;;;22.60;99.90;;;;;;5034459;28;20046;-83
2023/06/01 10:02:12;;;;;;;0.90;0.30;;;22.40;99.90;;;;;;5035584;28;20063;-83
2023/06/01 10:04:40;;;;;;;0.30;0.30;;;22.60;99.90;;;;;;5035017;28;20406;-83
2023/06/01 10:07:07;;;;;;;0.20;0.20;;;22.60;99.90;;;;;;5034803;28;20059;-83
2023/06/01 10:09:38;;;;;;;0.93;0.52;;;22.70;99.90;;;;;;5034982;28;20544;-83
2023/06/01 10:12:05;;;;;;;0.68;0.40;;;22.70;99.90;;;;;;5034594;28;20032;-84
2023/06/01 10:14:31;;;;;;;0.98;0.90;;;22.70;99.90;;;;;;5034535;28;20033;-84
2023/06/01 10:16:58;;;;;;;0.10;0.10;;;22.90;99.90;;;;;;5034866;28;20029;-83
2023/06/01 10:19:23;;;;;;;0.45;0.45;;;23.20;99.90;;;;;;5034558;28;20036;-83
2023/06/01 10:21:50;;;;;;;0.20;0.20;;;23.20;99.90;;;;;;5034660;28;20021;-83
2023/06/01 10:24:19;;;;;;;0.25;0.25;;;23.10;99.90;;;;;;5034454;28;20025;-83
2023/06/01 10:27:17;;;;;;;0.40;0.30;;;23.20;99.90;;;;;;5034559;28;20034;-83
2023/06/01 10:29:43;;;;;;;0.30;0.20;;;23.30;99.90;;;;;;5025499;28;20116;-83
2023/06/01 10:32:38;;;;;;;0.28;0.28;;;23.30;99.90;;;;;;5034380;28;20474;-84
2023/06/01 10:35:05;;;;;;;0.57;0.20;;;23.50;99.90;;;;;;5034338;28;20041;-83
2023/06/01 10:37:31;;;;;;;0.40;0.40;;;23.70;99.90;;;;;;5034293;28;20022;-84
2023/06/01 10:40:14;;;;;;;0.20;0.20;;;23.70;99.90;;;;;;5034463;28;20509;-84
2023/06/01 10:42:40;;;;;;;0.93;0.55;;;23.80;99.90;;;;;;5048882;28;20041;-83
2023/06/01 10:45:07;;;;;;;0.20;0.20;;;23.90;99.90;;;;;;5053776;28;20087;-84
2023/06/01 10:47:32;;;;;;;0.25;0.25;;;23.90;99.90;;;;;;5054635;28;20131;-83
2023/06/01 10:49:58;;;;;;;0.32;0.20;;;24.00;99.90;;;;;;5046094;28;20033;-83
2023/06/01 10:52:27;;;;;;;0.50;0.50;;;23.90;99.90;;;;;;5034115;28;20497;-83
2023/06/01 10:54:54;;;;;;;0.10;0.10;;;24.00;99.90;;;;;;5034262;28;20068;-83
2023/06/01 10:57:25;;;;;;;0.30;0.30;;;24.00;99.90;;;;;;5033911;28;20147;-83
2023/06/01 11:00:22;;;;;;;0.20;0.20;;;23.90;99.90;;;;;;5033837;28;20060;-83
2023/06/01 11:02:59;;;;;;;0.20;0.20;;;24.30;99.90;;;;;;5027991;28;20478;-83
2023/06/01 11:05:47;;;;;;;0.20;0.20;;;24.30;99.90;;;;;;5033716;28;20068;-83
2023/06/01 11:08:19;;;;;;;0.20;0.17;;;24.50;99.90;;;;;;5016080;28;20033;-83
2023/06/01 11:10:53;;;;;;;0.32;0.32;;;24.80;99.90;;;;;;5033769;28;20397;-83
2023/06/01 11:13:27;;;;;;;0.10;0.10;;;24.90;99.90;;;;;;5033510;28;20028;-84
2023/06/01 11:16:10;;;;;;;0.30;0.30;;;25.00;99.90;;;;;;5034116;28;20057;-83
2023/06/01 11:18:58;;;;;;;0.10;0.10;;;24.90;99.90;;;;;;5033351;28;20045;-83
2023/06/01 11:21:25;;;;;;;0.47;0.43;;;24.90;99.90;;;;;;5015825;28;20056;-84
2023/06/01 11:23:52;;;;;;;0.45;0.45;;;24.90;99.90;;;;;;5033580;28;20040;-83
2023/06/01 11:26:19;;;;;;;0.20;0.20;;;25.20;99.90;;;;;;5033544;28;20045;-83
2023/06/01 11:28:48;;;;;;;0.45;0.20;;;25.30;99.90;;;;;;5033448;28;20041;-83
2023/06/01 11:31:17;;;;;;;11.05;0.57;;;25.40;99.90;;;;;;5033394;28;20113;-84
2023/06/01 11:33:52;;;;;;;0.60;0.60;;;25.40;99.90;;;;;;5033627;28;20018;-83
2023/06/01 11:36:23;;;;;;;0.85;0.40;;;25.60;99.90;;;;;;5033404;28;20089;-84
2023/06/01 11:38:49;;;;;;;0.15;0.10;;;25.80;99.90;;;;;;5032994;28;20125;-84
2023/06/01 11:41:15;;;;;;;0.52;0.52;;;25.50;99.90;;;;;;5034619;28;20040;-84
2023/06/01 11:43:40;;;;;;;0.28;0.28;;;25.60;99.90;;;;;;5053355;28;20078;-83
2023/06/01 11:46:07;;;;;;;0.32;0.32;;;25.70;99.90;;;;;;5053034;28;20056;-83
2023/06/01 11:48:34;;;;;;;0.38;0.38;;;25.70;99.90;;;;;;5052717;28;20025;-84
2023/06/01 11:51:01;;;;;;;0.22;0.22;;;25.50;99.90;;;;;;5036551;28;20072;-83
2023/06/01 11:53:29;;;;;;;0.35;0.10;;;25.40;99.90;;;;;;5015030;28;20073;-84
2023/06/01 11:55:55;;;;;;;0.20;0.20;;;25.70;99.90;;;;;;5032586;28;20063;-83
2023/06/01 11:58:25;;;;;;;0.90;0.50;;;25.90;99.90;;;;;;5033033;28;20065;-83
2023/06/01 12:00:52;;;;;;;1.60;0.73;;;26.10;99.90;;;;;;5032770;28;20076;-83
2023/06/01 12:03:18;;;;;;;0.30;0.30;;;26.10;99.90;;;;;;5032771;28;20052;-83
2023/06/01 12:05:45;;;;;;;0.30;0.30;;;25.90;99.90;;;;;;5032737;28;20419;-84
2023/06/01 12:08:31;;;;;;;0.40;0.40;;;25.50;99.90;;;;;;5032972;28;20029;-84
2023/06/01 12:10:57;;;;;;;1.13;0.50;;;25.70;99.90;;;;;;5032591;28;20446;-83
2023/06/01 12:13:24;;;;;;;0.40;0.30;;;25.70;99.90;;;;;;5032601;28;20033;-83
2023/06/01 12:15:51;;;;;;;0.65;0.65;;;25.80;99.90;;;;;;5032554;28;20363;-84
2023/06/01 12:18:30;;;;;;;0.45;0.38;;;26.30;99.90;;;;;;5032590;28;20098;-83
2023/06/01 12:20:55;;;;;;;0.30;0.30;;;26.50;99.90;;;;;;5032703;28;20037;-84
2023/06/01 12:23:21;;;;;;;0.40;0.40;;;26.80;99.90;;;;;;5032400;28;20375;-84
2023/06/01 12:25:54;;;;;;;0.32;0.20;;;27.00;99.90;;;;;;5032539;28;20023;-83
2023/06/01 12:28:21;;;;;;;0.13;0.13;;;27.10;99.90;;;;;;5032052;28;20366;-84
2023/06/01 12:30:47;;;;;;;0.10;0.10;;;27.00;99.90;;;;;;5032865;28;20029;-84
2023/06/01 12:33:31;;;;;;;1.42;0.20;;;27.10;99.90;;;;;;5032251;28;20080;-84
2023/06/01 12:35:56;;;;;;;0.20;0.20;;;27.40;99.90;;;;;;5032180;28;20430;-84
2023/06/01 12:38:22;;;;;;;0.20;0.20;;;27.80;99.90;;;;;;5031898;28;20212;-84
2023/06/01 12:41:08;;;;;;;0.10;0.10;;;28.20;99.90;;;;;;5032181;28;20124;-84
2023/06/01 12:43:37;;;;;;;0.17;0.10;;;28.60;99.90;;;;;;5032365;28;20030;-84
2023/06/01 12:46:06;;;;;;;0.17;0.17;;;28.80;99.90;;;;;;5032715;28;20025;-84
2023/06/01 12:48:33;;;;;;;0.22;0.22;;;28.80;99.90;;;;;;5032109;28;20029;-84
2023/06/01 12:50:59;;;;;;;0.10;0.10;;;29.00;99.90;;;;;;5031866;28;20026;-84
2023/06/01 12:53:25;;;;;;;0.55;0.38;;;29.00;99.90;;;;;;5032290;28;20444;-84